createdAt,value
2019-05-19T00:02:25.788Z,4.42
2019-05-19T00:04:55.092Z,6.15
2019-05-19T00:07:24.490Z,4.43
2019-05-19T00:09:54.670Z,6.45
2019-05-19T00:12:24.220Z,3.90
2019-05-19T00:14:53.214Z,4.23
2019-05-19T00:17:22.512Z,4.67
2019-05-19T00:19:51.506Z,4.33
2019-05-19T00:22:20.394Z,5.58
2019-05-19T00:24:49.285Z,4.60
2019-05-19T00:27:19.104Z,4.25
2019-05-19T00:29:48.092Z,7.25
2019-05-19T00:32:17.191Z,5.40
2019-05-19T00:34:46.080Z,5.08
2019-05-19T00:37:15.070Z,5.28
2019-05-19T00:39:44.065Z,5.30
2019-05-19T00:42:13.059Z,5.47
2019-05-19T00:44:42.052Z,4.87
2019-05-19T00:47:11.350Z,3.08
2019-05-19T00:49:41.845Z,5.25
2019-05-19T00:52:10.874Z,5.15
2019-05-19T00:54:39.867Z,4.92
2019-05-19T00:57:08.961Z,5.87
2019-05-19T00:59:38.160Z,6.20
2019-05-19T01:02:09.305Z,4.83
2019-05-19T01:04:38.402Z,6.33
2019-05-19T01:07:08.215Z,4.28
2019-05-19T01:09:37.520Z,4.17
2019-05-19T01:12:06.509Z,4.58
2019-05-19T01:14:35.504Z,6.60
2019-05-19T01:17:05.513Z,5.33
2019-05-19T01:19:34.712Z,6.70
2019-05-19T01:22:03.709Z,4.28
2019-05-19T01:24:32.705Z,4.87
2019-05-19T01:27:01.691Z,5.17
2019-05-19T01:29:30.684Z,5.00
2019-05-19T01:31:59.987Z,7.62
2019-05-19T01:34:28.979Z,4.90
2019-05-19T01:36:58.388Z,4.92
2019-05-19T01:39:27.590Z,5.53
2019-05-19T01:41:56.572Z,5.03
2019-05-19T01:44:25.565Z,4.17
2019-05-19T01:46:54.762Z,5.55
2019-05-19T01:49:24.168Z,4.08
2019-05-19T01:51:53.470Z,5.50
2019-05-19T01:54:22.734Z,4.17
2019-05-19T01:56:52.172Z,4.67
2019-05-19T01:59:21.061Z,4.62
2019-05-19T02:01:50.064Z,5.20
2019-05-19T02:04:19.046Z,4.40
2019-05-19T02:06:48.038Z,5.05
2019-05-19T02:09:16.930Z,5.72
2019-05-19T02:11:46.027Z,7.25
2019-05-19T02:14:15.019Z,6.15
2019-05-19T02:16:44.012Z,4.72
2019-05-19T02:19:13.005Z,5.50
2019-05-19T02:21:41.999Z,4.87
2019-05-19T02:24:10.991Z,5.20
2019-05-19T02:26:39.989Z,4.50
2019-05-19T02:29:08.977Z,4.08
2019-05-19T02:31:37.971Z,5.28
2019-05-19T02:34:06.965Z,5.85
2019-05-19T02:36:36.276Z,4.55
2019-05-19T02:39:06.795Z,4.53
2019-05-19T02:41:35.785Z,4.78
2019-05-19T02:44:05.094Z,4.33
2019-05-19T02:46:34.092Z,5.15
2019-05-19T02:49:03.074Z,5.33
2019-05-19T02:51:32.477Z,5.90
2019-05-19T02:54:01.678Z,5.00
2019-05-19T02:56:31.287Z,5.15
2019-05-19T02:59:00.891Z,5.72
2019-05-19T03:01:29.890Z,6.22
2019-05-19T03:03:58.876Z,6.28
2019-05-19T03:06:27.971Z,6.42
2019-05-19T03:08:57.742Z,4.55
2019-05-19T03:11:28.315Z,4.92
2019-05-19T03:13:57.310Z,5.87
2019-05-19T03:16:27.322Z,5.77
2019-05-19T03:18:56.834Z,4.87
2019-05-19T03:21:26.139Z,4.72
2019-05-19T03:23:55.126Z,4.53
2019-05-19T03:26:24.530Z,5.42
2019-05-19T03:28:54.035Z,4.60
2019-05-19T03:31:24.908Z,5.60
2019-05-19T03:33:56.641Z,5.03
2019-05-19T03:36:25.933Z,4.58
2019-05-19T03:38:55.226Z,4.55
2019-05-19T03:41:24.935Z,4.57
2019-05-19T03:43:54.443Z,5.10
2019-05-19T03:46:23.345Z,6.12
2019-05-19T03:48:52.555Z,5.23
2019-05-19T03:51:31.110Z,5.00
2019-05-19T03:53:52.356Z,6.78
2019-05-19T03:56:21.255Z,4.90
2019-05-19T03:58:50.241Z,5.55
2019-05-19T04:01:19.236Z,4.78
2019-05-19T04:03:48.232Z,3.87
2019-05-19T04:06:18.141Z,5.55
2019-05-19T04:08:47.134Z,7.30
2019-05-19T04:11:16.128Z,4.60
2019-05-19T04:13:45.234Z,4.60
2019-05-19T04:16:14.431Z,4.03
2019-05-19T04:18:43.416Z,4.05
2019-05-19T04:21:13.330Z,5.60
2019-05-19T04:23:42.330Z,4.83
2019-05-19T04:26:12.238Z,4.80
2019-05-19T04:28:41.230Z,4.25
2019-05-19T04:31:10.222Z,5.50
2019-05-19T04:33:39.217Z,4.53
2019-05-19T04:36:08.211Z,3.30
2019-05-19T04:38:37.304Z,4.20
2019-05-19T04:41:06.197Z,4.40
2019-05-19T04:43:35.194Z,3.03
2019-05-19T04:46:04.182Z,4.33
2019-05-19T04:48:33.071Z,4.35
2019-05-19T04:51:03.118Z,5.45
2019-05-19T04:53:32.189Z,3.50
2019-05-19T04:56:01.077Z,3.77
2019-05-19T04:58:30.072Z,2.40
2019-05-19T05:00:59.062Z,3.30
2019-05-19T05:03:28.157Z,4.03
2019-05-19T05:05:57.049Z,3.02
2019-05-19T05:08:30.272Z,3.52
2019-05-19T05:10:57.187Z,3.22
2019-05-19T05:13:26.591Z,5.00
2019-05-19T05:15:55.580Z,4.10
2019-05-19T05:18:24.791Z,3.52
2019-05-19T05:20:54.080Z,2.75
2019-05-19T05:23:23.994Z,3.27
2019-05-19T05:25:53.044Z,2.98
2019-05-19T05:28:22.861Z,3.87
2019-05-19T05:30:52.308Z,2.50
2019-05-19T05:33:22.533Z,4.12
2019-05-19T05:35:51.423Z,2.95
2019-05-19T05:38:20.418Z,2.90
2019-05-19T05:40:49.413Z,4.05
2019-05-19T05:43:18.395Z,4.37
2019-05-19T05:45:48.007Z,3.70
2019-05-19T05:48:18.842Z,3.40
2019-05-19T05:50:48.758Z,3.67
2019-05-19T05:53:17.748Z,6.60
2019-05-19T05:55:46.742Z,3.12
2019-05-19T05:58:16.041Z,3.60
2019-05-19T06:00:45.344Z,4.95
2019-05-19T06:03:14.334Z,4.70
2019-05-19T06:05:43.635Z,3.52
2019-05-19T06:08:12.935Z,4.35
2019-05-19T06:10:41.929Z,3.42
2019-05-19T06:13:10.921Z,3.65
2019-05-19T06:15:39.917Z,3.35
2019-05-19T06:18:09.216Z,3.27
2019-05-19T06:20:38.208Z,4.87
2019-05-19T06:23:07.510Z,4.33
2019-05-19T06:25:36.528Z,4.50
2019-05-19T06:28:05.494Z,3.90
2019-05-19T06:30:34.488Z,4.73
2019-05-19T06:33:03.994Z,3.83
2019-05-19T06:35:33.090Z,3.47
2019-05-19T06:38:02.524Z,3.80
2019-05-19T06:40:32.008Z,3.55
2019-05-19T06:43:00.991Z,5.83
2019-05-19T06:45:30.409Z,4.53
2019-05-19T06:47:59.591Z,3.95
2019-05-19T06:50:28.585Z,4.00
2019-05-19T06:53:12.923Z,3.75
2019-05-19T06:55:29.042Z,4.72
2019-05-19T06:57:58.023Z,5.55
2019-05-19T07:00:27.017Z,4.33
2019-05-19T07:02:56.314Z,5.67
2019-05-19T07:05:26.025Z,4.37
2019-05-19T07:07:55.836Z,4.75
2019-05-19T07:10:25.137Z,4.80
2019-05-19T07:12:54.438Z,4.67
2019-05-19T07:15:23.738Z,6.15
2019-05-19T07:17:53.058Z,4.75
2019-05-19T07:20:22.340Z,7.20
2019-05-19T07:22:51.641Z,5.73
2019-05-19T07:25:20.733Z,6.28
2019-05-19T07:27:49.945Z,5.47
2019-05-19T07:30:19.459Z,5.22
2019-05-19T07:32:48.534Z,6.12
2019-05-19T07:35:17.524Z,6.70
2019-05-19T07:37:46.620Z,7.67
2019-05-19T07:40:15.822Z,7.05
2019-05-19T07:42:45.248Z,10.28
2019-05-19T07:45:15.154Z,8.07
2019-05-19T07:47:44.231Z,6.75
2019-05-19T07:50:13.121Z,8.67
2019-05-19T07:52:42.024Z,7.78
2019-05-19T07:55:10.908Z,7.92
2019-05-19T07:57:39.691Z,7.50
2019-05-19T08:00:09.560Z,8.93
2019-05-19T08:02:38.981Z,10.40
2019-05-19T08:05:08.212Z,10.03
2019-05-19T08:07:37.695Z,8.33
2019-05-19T08:10:07.217Z,11.20
2019-05-19T08:12:36.110Z,8.68
2019-05-19T08:15:07.051Z,13.18
2019-05-19T08:17:36.247Z,9.65
2019-05-19T08:20:07.081Z,9.10
2019-05-19T08:22:36.075Z,11.63
2019-05-19T08:25:07.842Z,11.33
2019-05-19T08:27:37.132Z,11.95
2019-05-19T08:30:06.842Z,16.05
2019-05-19T08:32:36.963Z,16.05
2019-05-19T08:35:07.183Z,17.02
2019-05-19T08:37:36.289Z,16.57
2019-05-19T08:40:05.178Z,18.07
2019-05-19T08:42:34.164Z,85.47
2019-05-19T08:45:03.773Z,85.83
2019-05-19T08:47:32.765Z,72.62
2019-05-19T08:50:01.800Z,35.88
2019-05-19T08:52:31.066Z,30.00
2019-05-19T08:55:00.050Z,30.80
2019-05-19T08:57:29.046Z,26.52
2019-05-19T08:59:58.138Z,343.40
2019-05-19T09:02:27.030Z,317.13
2019-05-19T09:04:56.334Z,493.90
2019-05-19T09:07:25.732Z,309.87
2019-05-19T09:09:56.249Z,331.85
2019-05-19T09:12:25.767Z,308.93
2019-05-19T09:14:55.069Z,361.70
2019-05-19T09:17:25.085Z,308.00
2019-05-19T09:19:54.284Z,211.70
2019-05-19T09:22:23.591Z,143.20
2019-05-19T09:24:52.490Z,130.18
2019-05-19T09:27:21.364Z,110.08
2019-05-19T09:29:50.255Z,89.13
2019-05-19T09:32:19.658Z,64.45
2019-05-19T09:34:48.548Z,52.00
2019-05-19T09:37:17.542Z,47.10
2019-05-19T09:39:46.535Z,40.78
2019-05-19T09:42:15.543Z,32.03
2019-05-19T09:44:44.650Z,26.70
2019-05-19T09:47:13.517Z,28.73
2019-05-19T09:49:42.510Z,25.50
2019-05-19T09:52:16.406Z,22.82
2019-05-19T09:54:45.161Z,23.57
2019-05-19T09:57:12.873Z,21.70
2019-05-19T09:59:43.088Z,53.20
2019-05-19T10:02:12.089Z,112.97
2019-05-19T10:04:41.090Z,179.68
2019-05-19T10:07:10.203Z,121.28
2019-05-19T10:09:50.271Z,90.10
2019-05-19T10:12:19.426Z,76.87
2019-05-19T10:14:48.419Z,54.15
2019-05-19T10:17:17.417Z,45.98
2019-05-19T10:19:46.706Z,41.05
2019-05-19T10:22:15.706Z,33.55
2019-05-19T10:24:59.376Z,31.62
2019-05-19T10:27:15.223Z,21.62
2019-05-19T10:29:44.220Z,20.88
2019-05-19T10:32:13.218Z,21.93
2019-05-19T10:34:42.510Z,17.15
2019-05-19T10:37:11.809Z,16.70
2019-05-19T10:39:40.807Z,15.93
2019-05-19T10:42:10.106Z,16.32
2019-05-19T10:44:39.198Z,14.50
2019-05-19T10:47:08.418Z,13.53
2019-05-19T10:49:42.530Z,15.30
2019-05-19T10:52:10.070Z,14.17
2019-05-19T10:54:39.062Z,13.45
2019-05-19T10:57:08.363Z,13.95
2019-05-19T10:59:37.388Z,12.47
2019-05-19T11:02:07.577Z,12.27
2019-05-19T11:04:36.579Z,11.55
2019-05-19T11:07:05.568Z,12.53
2019-05-19T11:09:34.560Z,9.43
2019-05-19T11:12:04.574Z,9.70
2019-05-19T11:14:33.464Z,7.95
2019-05-19T11:17:02.457Z,5.72
2019-05-19T11:19:31.454Z,5.67
2019-05-19T11:22:01.365Z,5.85
2019-05-19T11:24:30.359Z,6.15
2019-05-19T11:26:59.662Z,7.00
2019-05-19T11:29:30.496Z,7.33
2019-05-19T11:31:59.488Z,9.70
2019-05-19T11:34:28.482Z,8.50
2019-05-19T11:36:57.474Z,7.23
2019-05-19T11:39:26.876Z,9.50
2019-05-19T11:41:56.691Z,5.95
2019-05-19T11:44:26.302Z,6.78
2019-05-19T11:46:56.007Z,5.97
2019-05-19T11:49:25.212Z,5.58
2019-05-19T11:51:54.822Z,5.87
2019-05-19T11:54:24.420Z,6.70
2019-05-19T11:56:53.722Z,5.00
2019-05-19T11:59:23.432Z,6.80
2019-05-19T12:01:52.985Z,5.97
2019-05-19T12:04:22.246Z,7.25
2019-05-19T12:06:51.241Z,6.50
2019-05-19T12:09:20.333Z,5.87
2019-05-19T12:11:49.316Z,6.10
2019-05-19T12:14:18.209Z,7.53
2019-05-19T12:16:47.313Z,5.57
2019-05-19T12:19:16.195Z,5.80
2019-05-19T12:21:45.190Z,8.03
2019-05-19T12:24:14.185Z,7.40
2019-05-19T12:26:43.176Z,6.12
2019-05-19T12:29:12.172Z,5.50
2019-05-19T12:31:41.169Z,6.12
2019-05-19T12:34:10.051Z,4.85
2019-05-19T12:36:38.950Z,5.60
2019-05-19T12:39:07.891Z,5.47
2019-05-19T12:41:37.134Z,4.58
2019-05-19T12:44:07.355Z,6.53
2019-05-19T12:46:37.268Z,4.92
2019-05-19T12:49:06.263Z,5.80
2019-05-19T12:51:35.259Z,4.73
2019-05-19T12:54:05.480Z,3.13
2019-05-19T12:56:39.491Z,4.95
2019-05-19T12:59:05.310Z,3.95
2019-05-19T13:01:34.301Z,3.40
2019-05-19T13:04:05.531Z,5.35
2019-05-19T13:06:35.123Z,4.63
2019-05-19T13:09:08.258Z,88.05
2019-05-19T13:11:37.402Z,178.32
2019-05-19T13:14:06.641Z,201.77
2019-05-19T13:16:35.631Z,116.30
2019-05-19T13:19:05.346Z,122.80
2019-05-19T13:21:35.154Z,99.40
2019-05-19T13:24:04.457Z,148.30
2019-05-19T13:26:33.447Z,193.55
2019-05-19T13:29:02.748Z,101.27
2019-05-19T13:31:32.055Z,67.45
2019-05-19T13:34:01.348Z,58.60
2019-05-19T13:36:30.375Z,52.77
2019-05-19T13:38:59.338Z,44.88
2019-05-19T13:41:28.638Z,31.60
2019-05-19T13:43:59.648Z,18.00
2019-05-19T13:46:29.693Z,13.20
2019-05-19T13:48:58.687Z,82.50
2019-05-19T13:51:27.992Z,103.85
2019-05-19T13:53:57.286Z,105.10
2019-05-19T13:56:26.606Z,61.10
2019-05-19T13:58:56.501Z,39.48
2019-05-19T14:01:28.715Z,33.73
2019-05-19T14:03:56.688Z,29.18
2019-05-19T14:06:26.248Z,27.90
2019-05-19T14:08:55.855Z,20.37
2019-05-19T14:11:26.101Z,30.37
2019-05-19T14:13:55.802Z,19.15
2019-05-19T14:16:25.194Z,21.62
2019-05-19T14:18:54.600Z,19.62
2019-05-19T14:21:23.545Z,18.87
2019-05-19T14:23:52.898Z,17.87
2019-05-19T14:26:22.603Z,17.87
2019-05-19T14:28:51.485Z,453.35
2019-05-19T14:31:20.478Z,164.70
2019-05-19T14:33:49.475Z,116.00
2019-05-19T14:36:18.464Z,132.53
2019-05-19T14:39:05.079Z,226.27
2019-05-19T14:41:33.909Z,128.90
2019-05-19T14:44:03.569Z,77.32
2019-05-19T14:46:32.561Z,177.30
2019-05-19T14:49:01.456Z,40.50
2019-05-19T14:51:30.508Z,37.45
2019-05-19T14:54:00.566Z,33.58
2019-05-19T14:56:29.457Z,33.42
2019-05-19T14:58:58.449Z,33.78
2019-05-19T15:01:27.544Z,31.67
2019-05-19T15:03:56.536Z,35.52
2019-05-19T15:06:26.052Z,35.30
2019-05-19T15:08:55.343Z,30.25
2019-05-19T15:11:24.745Z,33.02
2019-05-19T15:13:54.253Z,34.95
2019-05-19T15:16:24.165Z,38.03
2019-05-19T15:18:54.798Z,35.58
2019-05-19T15:21:24.312Z,38.20
2019-05-19T15:23:53.604Z,42.23
2019-05-19T15:26:22.870Z,42.83
2019-05-19T15:28:52.204Z,40.52
2019-05-19T15:31:21.198Z,43.38
2019-05-19T15:33:50.189Z,48.28
2019-05-19T15:36:19.213Z,45.30
2019-05-19T15:38:48.176Z,49.85
2019-05-19T15:41:17.170Z,44.90
2019-05-19T15:43:46.163Z,46.68
2019-05-19T15:46:18.010Z,45.63
2019-05-19T15:48:45.480Z,43.38
2019-05-19T15:51:14.372Z,45.15
2019-05-19T15:53:43.259Z,41.18
2019-05-19T15:56:12.151Z,44.80
2019-05-19T15:58:41.047Z,41.92
2019-05-19T16:01:10.375Z,41.92
2019-05-19T16:03:39.336Z,42.33
2019-05-19T16:06:08.329Z,44.70
2019-05-19T16:08:37.327Z,39.33
2019-05-19T16:11:06.314Z,35.40
2019-05-19T16:13:35.308Z,36.20
2019-05-19T16:16:04.302Z,38.85
2019-05-19T16:18:33.299Z,36.73
2019-05-19T16:21:02.597Z,35.50
2019-05-19T16:23:31.900Z,34.85
2019-05-19T16:26:01.200Z,29.32
2019-05-19T16:28:31.129Z,25.20
2019-05-19T16:31:00.421Z,19.17
2019-05-19T16:33:29.723Z,21.17
2019-05-19T16:35:58.718Z,20.48
2019-05-19T16:38:29.002Z,18.55
2019-05-19T16:40:57.920Z,19.65
2019-05-19T16:43:30.438Z,18.40
2019-05-19T16:45:59.596Z,17.80
2019-05-19T16:48:28.586Z,12.80
2019-05-19T16:50:57.578Z,15.55
2019-05-19T16:53:26.571Z,14.95
2019-05-19T16:55:55.921Z,39.83
2019-05-19T16:58:26.502Z,60.73
2019-05-19T17:00:57.913Z,102.80
2019-05-19T17:03:26.946Z,135.70
2019-05-19T17:05:56.146Z,154.15
2019-05-19T17:08:25.459Z,150.78
2019-05-19T17:10:55.670Z,143.43
2019-05-19T17:13:24.976Z,144.57
2019-05-19T17:15:54.577Z,137.03
2019-05-19T17:18:24.293Z,128.40
2019-05-19T17:20:55.020Z,127.53
2019-05-19T17:23:24.326Z,122.60
2019-05-19T17:25:54.542Z,109.90
2019-05-19T17:28:23.950Z,103.40
2019-05-19T17:30:55.294Z,103.87
2019-05-19T17:33:24.600Z,88.70
2019-05-19T17:35:54.235Z,85.35
2019-05-19T17:38:24.844Z,80.40
2019-05-19T17:40:54.351Z,80.00
2019-05-19T17:43:23.189Z,72.60
2019-05-19T17:45:52.030Z,72.20
2019-05-19T17:48:26.481Z,62.80
2019-05-19T17:50:53.077Z,59.13
2019-05-19T17:53:22.617Z,56.75
2019-05-19T17:55:52.290Z,54.98
2019-05-19T17:58:21.284Z,46.75
2019-05-19T18:00:50.377Z,46.63
2019-05-19T18:03:19.269Z,39.53
2019-05-19T18:05:48.569Z,37.45
2019-05-19T18:08:17.666Z,43.43
2019-05-19T18:10:46.554Z,39.67
2019-05-19T18:13:15.552Z,36.43
2019-05-19T18:15:45.564Z,36.48
2019-05-19T18:18:14.457Z,30.62
2019-05-19T18:20:43.448Z,25.80
2019-05-19T18:23:12.442Z,25.08
2019-05-19T18:25:41.539Z,28.23
2019-05-19T18:28:10.852Z,24.00
2019-05-19T18:30:40.036Z,22.15
2019-05-19T18:33:09.032Z,21.97
2019-05-19T18:35:38.025Z,21.77
2019-05-19T18:38:07.428Z,35.03
2019-05-19T18:40:36.431Z,78.70
2019-05-19T18:43:05.317Z,150.20
2019-05-19T18:45:40.762Z,167.45
2019-05-19T18:48:11.079Z,204.50
2019-05-19T18:50:40.071Z,207.87
2019-05-19T18:53:10.630Z,188.90
2019-05-19T18:55:40.414Z,164.50
2019-05-19T18:58:09.843Z,158.85
2019-05-19T19:00:39.629Z,145.97
2019-05-19T19:03:10.467Z,249.00
2019-05-19T19:05:39.595Z,479.83
2019-05-19T19:08:10.474Z,539.83
2019-05-19T19:10:40.326Z,524.70
2019-05-19T19:13:10.737Z,621.70
2019-05-19T19:15:43.840Z,585.25
2019-05-19T19:18:14.047Z,569.85
2019-05-19T19:20:43.348Z,514.35
2019-05-19T19:23:12.901Z,481.37
2019-05-19T19:25:43.076Z,451.22
2019-05-19T19:28:12.854Z,422.03
2019-05-19T19:30:43.334Z,391.32
2019-05-19T19:33:12.512Z,373.57
2019-05-19T19:35:42.234Z,340.70
2019-05-19T19:38:11.420Z,531.33
2019-05-19T19:40:40.420Z,542.65
2019-05-19T19:43:09.982Z,561.95
2019-05-19T19:45:40.258Z,564.30
2019-05-19T19:48:09.658Z,531.65
2019-05-19T19:50:38.775Z,489.17
2019-05-19T19:53:08.145Z,451.85
2019-05-19T19:55:37.554Z,475.83
2019-05-19T19:58:06.439Z,458.65
2019-05-19T20:00:38.815Z,481.52
2019-05-19T20:03:08.417Z,464.17
2019-05-19T20:05:38.030Z,440.88
2019-05-19T20:08:07.638Z,397.70
2019-05-19T20:10:39.390Z,386.12
2019-05-19T20:13:10.226Z,348.00
2019-05-19T20:15:39.528Z,319.82
2019-05-19T20:18:08.828Z,311.90
2019-05-19T20:20:38.136Z,287.63
2019-05-19T20:23:07.127Z,256.50
2019-05-19T20:25:37.240Z,245.97
2019-05-19T20:28:06.959Z,225.32
2019-05-19T20:30:36.854Z,213.87
2019-05-19T20:33:05.767Z,193.28
2019-05-19T20:35:35.469Z,181.12
2019-05-19T20:38:05.688Z,167.37
2019-05-19T20:40:34.792Z,164.95
2019-05-19T20:43:03.674Z,145.92
2019-05-19T20:45:33.698Z,138.00
2019-05-19T20:48:02.903Z,125.72
2019-05-19T20:50:31.890Z,123.22
2019-05-19T20:53:00.884Z,109.30
2019-05-19T20:55:30.185Z,103.67
2019-05-19T20:57:59.475Z,95.30
2019-05-19T21:00:28.483Z,82.25
2019-05-19T21:02:57.770Z,79.92
2019-05-19T21:05:27.069Z,77.55
2019-05-19T21:07:56.369Z,70.62
2019-05-19T21:10:26.592Z,61.05
2019-05-19T21:12:57.569Z,58.92
2019-05-19T21:15:27.037Z,53.35
2019-05-19T21:17:56.643Z,52.60
2019-05-19T21:20:25.950Z,48.95
2019-05-19T21:22:55.375Z,45.17
2019-05-19T21:25:24.550Z,38.58
2019-05-19T21:27:54.153Z,38.23
2019-05-19T21:30:24.513Z,33.60
2019-05-19T21:32:53.594Z,30.52
2019-05-19T21:35:22.670Z,27.30
2019-05-19T21:37:51.967Z,29.90
2019-05-19T21:40:21.268Z,22.75
2019-05-19T21:42:50.569Z,24.20
2019-05-19T21:45:21.712Z,23.93
2019-05-19T21:47:50.706Z,23.83
2019-05-19T21:50:19.697Z,21.42
2019-05-19T21:52:48.794Z,20.95
2019-05-19T21:55:20.756Z,18.85
2019-05-19T21:57:50.706Z,18.00
2019-05-19T22:00:21.199Z,19.57
2019-05-19T22:02:51.523Z,18.40
2019-05-19T22:05:20.417Z,16.20
2019-05-19T22:08:09.377Z,13.57
2019-05-19T22:10:38.392Z,12.28
2019-05-19T22:13:07.362Z,10.93
2019-05-19T22:15:36.456Z,11.93
2019-05-19T22:18:06.384Z,11.48
2019-05-19T22:20:35.581Z,11.90
2019-05-19T22:23:06.211Z,10.38
2019-05-19T22:25:36.320Z,9.60
2019-05-19T22:28:07.708Z,9.50
2019-05-19T22:30:37.126Z,11.08
2019-05-19T22:33:06.065Z,7.85
2019-05-19T22:35:35.982Z,6.43
2019-05-19T22:38:05.281Z,7.67
2019-05-19T22:40:34.583Z,6.93
2019-05-19T22:43:03.574Z,7.85
2019-05-19T22:45:33.008Z,6.95
2019-05-19T22:48:02.181Z,8.03
2019-05-19T22:50:31.270Z,8.67
2019-05-19T22:53:00.164Z,6.53
2019-05-19T22:55:29.057Z,6.57
2019-05-19T22:57:58.767Z,7.87
2019-05-19T23:00:28.375Z,6.28
2019-05-19T23:02:58.292Z,5.40
2019-05-19T23:05:27.294Z,5.33
2019-05-19T23:07:56.311Z,5.65
2019-05-19T23:10:25.573Z,11.60
2019-05-19T23:12:55.844Z,82.90
2019-05-19T23:15:25.806Z,145.75
2019-05-19T23:17:55.317Z,173.30
2019-05-19T23:20:26.181Z,169.22
2019-05-19T23:22:56.176Z,187.23
2019-05-19T23:25:25.471Z,204.60
2019-05-19T23:27:56.511Z,238.82
2019-05-19T23:30:26.375Z,431.47
2019-05-19T23:32:55.730Z,559.00
2019-05-19T23:35:27.187Z,590.83
2019-05-19T23:37:57.723Z,627.10
2019-05-19T23:40:27.005Z,676.77
2019-05-19T23:42:56.612Z,690.90
2019-05-19T23:45:30.487Z,673.42
2019-05-19T23:48:00.930Z,646.10
2019-05-19T23:50:31.273Z,592.25
2019-05-19T23:53:00.274Z,490.17
2019-05-19T23:55:29.565Z,400.57
2019-05-19T23:57:58.559Z,323.52
